Time;durP1;ratioP1;P1;durP2;ratioP2;P2;SDS_P1;SDS_P2;PMS_P1;PMS_P2;Temp;Humidity;BMP_temperature;BMP_pressure;BME280_temperature;BME280_humidity;BME280_pressure;Samples;Min_cycle;Max_cycle;Signal;HPM_P1;HPM_P2
2021/08/11 00:01:35;;;;;;;63.97;60.87;;;;;;;;;;5013772;28;20451;-72
2021/08/11 00:04:02;;;;;;;59.20;56.40;;;;;;;;;;4998898;28;20460;-73
2021/08/11 00:06:30;;;;;;;61.13;58.13;;;;;;;;;;5015005;28;20474;-73
2021/08/11 00:08:57;;;;;;;58.97;56.07;;;;;;;;;;5015013;28;20979;-72
2021/08/11 00:11:24;;;;;;;56.50;53.70;;;;;;;;;;5013875;28;20449;-72
2021/08/11 00:13:51;;;;;;;54.80;52.10;;;;;;;;;;5015103;28;20481;-72
2021/08/11 00:16:18;;;;;;;55.10;52.40;;;;;;;;;;5014334;28;20489;-72
2021/08/11 00:18:46;;;;;;;55.23;52.63;;;;;;;;;;5013838;28;20453;-72
2021/08/11 00:21:14;;;;;;;52.97;49.97;;;;;;;;;;5014296;28;20456;-72
2021/08/11 00:23:41;;;;;;;53.07;50.47;;;;;;;;;;5011648;28;20456;-71
2021/08/11 00:26:08;;;;;;;52.20;49.70;;;;;;;;;;5013970;28;20478;-72
2021/08/11 00:28:35;;;;;;;50.33;47.80;;;;;;;;;;5015124;28;20449;-72
2021/08/11 00:31:02;;;;;;;51.27;48.67;;;;;;;;;;5013437;28;20987;-72
2021/08/11 00:33:29;;;;;;;49.90;47.30;;;;;;;;;;5013914;28;20481;-73
2021/08/11 00:35:58;;;;;;;50.13;47.53;;;;;;;;;;5006213;28;20996;-73
2021/08/11 00:38:25;;;;;;;48.17;45.67;;;;;;;;;;5014267;28;20460;-71
2021/08/11 00:40:52;;;;;;;50.10;47.60;;;;;;;;;;5013900;28;20460;-71
2021/08/11 00:43:19;;;;;;;49.00;46.60;;;;;;;;;;5014640;28;20965;-72
2021/08/11 00:46:02;;;;;;;48.53;45.93;;;;;;;;;;5013594;28;20485;-73
2021/08/11 00:48:29;;;;;;;44.67;42.43;;;;;;;;;;5014493;28;20449;-72
2021/08/11 00:50:58;;;;;;;46.67;44.17;;;;;;;;;;5012004;28;20453;-73
2021/08/11 00:53:27;;;;;;;46.63;44.33;;;;;;;;;;5014581;28;20489;-73
2021/08/11 00:55:56;;;;;;;46.63;44.33;;;;;;;;;;5014043;28;20478;-73
2021/08/11 00:58:23;;;;;;;46.97;44.60;;;;;;;;;;5014145;28;20453;-72
2021/08/11 01:00:52;;;;;;;45.60;43.30;;;;;;;;;;5012474;28;20450;-74
2021/08/11 01:03:20;;;;;;;43.80;41.50;;;;;;;;;;5007578;28;20970;-73
2021/08/11 01:05:47;;;;;;;45.13;42.93;;;;;;;;;;5011401;28;20477;-73
2021/08/11 01:08:16;;;;;;;44.97;42.67;;;;;;;;;;5013970;28;20450;-72
2021/08/11 01:10:44;;;;;;;45.17;42.53;;;;;;;;;;5013384;28;20458;-72
2021/08/11 01:13:13;;;;;;;42.77;40.67;;;;;;;;;;5014149;28;20514;-72
2021/08/11 01:15:45;;;;;;;42.10;39.90;;;;;;;;;;5013283;28;20481;-72
2021/08/11 01:18:12;;;;;;;43.57;41.27;;;;;;;;;;5001940;28;20458;-72
2021/08/11 01:20:43;;;;;;;41.83;39.73;;;;;;;;;;5000676;28;20947;-72
2021/08/11 01:23:13;;;;;;;43.37;41.17;;;;;;;;;;5014167;28;20481;-72
2021/08/11 01:25:43;;;;;;;43.17;40.90;;;;;;;;;;5013429;28;20992;-72
2021/08/11 01:28:26;;;;;;;42.63;40.53;;;;;;;;;;5013045;28;20454;-73
2021/08/11 01:30:56;;;;;;;41.30;39.20;;;;;;;;;;5011998;28;20449;-73
2021/08/11 01:33:45;;;;;;;41.67;39.57;;;;;;;;;;5013413;28;20469;-72
2021/08/11 01:36:15;;;;;;;41.20;39.10;;;;;;;;;;5012594;28;20473;-73
2021/08/11 01:38:47;;;;;;;40.80;38.70;;;;;;;;;;5013112;28;20448;-73
2021/08/11 01:41:15;;;;;;;41.37;39.20;;;;;;;;;;5012134;28;20496;-73
2021/08/11 01:43:45;;;;;;;40.23;38.13;;;;;;;;;;5012583;28;20476;-73
2021/08/11 01:46:14;;;;;;;40.80;38.70;;;;;;;;;;5012910;28;20480;-72
2021/08/11 01:48:43;;;;;;;42.27;39.53;;;;;;;;;;5011693;28;20979;-71
2021/08/11 01:51:11;;;;;;;46.13;42.97;;;;;;;;;;4996863;28;20458;-72
2021/08/11 01:53:38;;;;;;;47.00;44.50;;;;;;;;;;5011834;28;20488;-72
2021/08/11 01:56:06;;;;;;;48.20;45.40;;;;;;;;;;5007791;28;20481;-72
2021/08/11 01:58:33;;;;;;;47.50;45.00;;;;;;;;;;5012605;28;20449;-72
2021/08/11 02:01:02;;;;;;;45.60;43.03;;;;;;;;;;5010010;28;20450;-72
2021/08/11 02:03:29;;;;;;;47.30;44.90;;;;;;;;;;5011801;28;20696;-75
2021/08/11 02:05:58;;;;;;;46.30;43.83;;;;;;;;;;5011143;28;20477;-72
2021/08/11 02:08:25;;;;;;;46.97;44.57;;;;;;;;;;5012323;28;20450;-72
2021/08/11 02:10:54;;;;;;;46.50;43.90;;;;;;;;;;5010715;28;20468;-72
2021/08/11 02:13:22;;;;;;;43.73;41.50;;;;;;;;;;5011643;28;21000;-72
2021/08/11 02:15:49;;;;;;;43.63;41.33;;;;;;;;;;5012031;28;20487;-72
2021/08/11 02:18:16;;;;;;;43.77;41.30;;;;;;;;;;5014961;22;20589;-72
2021/08/11 02:20:44;;;;;;;44.53;42.23;;;;;;;;;;4994316;28;20459;-72
2021/08/11 02:23:13;;;;;;;43.10;40.90;;;;;;;;;;4993719;28;20450;-72
2021/08/11 02:25:44;;;;;;;42.27;40.07;;;;;;;;;;4998829;28;20959;-72
2021/08/11 02:28:13;;;;;;;42.73;40.33;;;;;;;;;;4993362;28;20479;-72
2021/08/11 02:30:46;;;;;;;41.07;38.87;;;;;;;;;;4992453;28;21006;-72
2021/08/11 02:33:17;;;;;;;39.63;37.53;;;;;;;;;;4992638;28;20482;-72
2021/08/11 02:35:48;;;;;;;40.10;38.00;;;;;;;;;;4990942;28;20443;-72
2021/08/11 02:38:18;;;;;;;37.47;35.47;;;;;;;;;;4987321;28;20997;-72
2021/08/11 02:40:49;;;;;;;39.50;36.90;;;;;;;;;;4989395;28;20463;-72
2021/08/11 02:43:19;;;;;;;38.60;36.53;;;;;;;;;;4994728;28;20817;-73
2021/08/11 02:45:49;;;;;;;39.40;37.30;;;;;;;;;;4996427;28;20810;-73
2021/08/11 02:48:16;;;;;;;39.27;37.07;;;;;;;;;;4996503;28;20478;-71
2021/08/11 02:50:44;;;;;;;37.37;35.37;;;;;;;;;;4995061;28;21023;-72
2021/08/11 02:53:12;;;;;;;38.23;36.00;;;;;;;;;;4995849;28;20957;-72
2021/08/11 02:55:41;;;;;;;38.47;36.37;;;;;;;;;;4996043;28;20457;-72
2021/08/11 02:58:09;;;;;;;40.50;38.30;;;;;;;;;;4995372;28;20474;-72
2021/08/11 03:00:36;;;;;;;39.27;36.97;;;;;;;;;;4995883;28;20455;-72
2021/08/11 03:03:04;;;;;;;38.50;36.40;;;;;;;;;;4995561;28;20836;-73
2021/08/11 03:05:32;;;;;;;38.03;35.93;;;;;;;;;;4995814;28;20468;-73
2021/08/11 03:08:00;;;;;;;36.47;34.50;;;;;;;;;;4994794;28;20477;-72
2021/08/11 03:10:28;;;;;;;37.03;34.90;;;;;;;;;;4995102;28;20454;-72
2021/08/11 03:12:58;;;;;;;36.03;33.63;;;;;;;;;;4996419;28;20454;-71
2021/08/11 03:15:27;;;;;;;35.67;33.67;;;;;;;;;;4996501;28;20445;-72
2021/08/11 03:17:54;;;;;;;36.40;34.30;;;;;;;;;;4994620;28;21004;-72
2021/08/11 03:20:21;;;;;;;35.47;33.50;;;;;;;;;;4995902;28;20460;-72
2021/08/11 03:22:48;;;;;;;35.67;33.67;;;;;;;;;;4995046;28;20459;-72
2021/08/11 03:25:15;;;;;;;35.33;33.30;;;;;;;;;;4994635;28;20465;-71
2021/08/11 03:27:43;;;;;;;35.27;33.17;;;;;;;;;;4983764;28;20533;-72
2021/08/11 03:30:12;;;;;;;34.87;32.90;;;;;;;;;;4989460;28;20450;-72
2021/08/11 03:32:39;;;;;;;34.73;32.83;;;;;;;;;;4995842;28;20467;-72
2021/08/11 03:35:06;;;;;;;34.93;33.03;;;;;;;;;;4995221;28;20489;-72
2021/08/11 03:37:34;;;;;;;35.23;33.27;;;;;;;;;;4994955;28;20544;-72
2021/08/11 03:40:01;;;;;;;36.00;34.10;;;;;;;;;;4996112;28;20454;-72
2021/08/11 03:42:28;;;;;;;35.30;33.30;;;;;;;;;;4994782;28;20457;-72
2021/08/11 03:44:55;;;;;;;36.23;34.13;;;;;;;;;;4990183;28;20456;-72
2021/08/11 03:47:23;;;;;;;36.43;34.20;;;;;;;;;;4995127;28;20466;-73
2021/08/11 03:49:50;;;;;;;36.80;34.50;;;;;;;;;;4995475;28;20826;-72
2021/08/11 03:52:18;;;;;;;36.20;34.10;;;;;;;;;;4995106;28;20537;-72
2021/08/11 03:54:45;;;;;;;36.67;34.47;;;;;;;;;;4994363;28;20873;-71
2021/08/11 03:57:12;;;;;;;35.07;33.07;;;;;;;;;;4995540;28;20477;-71
2021/08/11 03:59:39;;;;;;;35.80;33.63;;;;;;;;;;4995175;28;20451;-72
2021/08/11 04:02:06;;;;;;;35.53;33.30;;;;;;;;;;4993983;28;20452;-72
2021/08/11 04:04:34;;;;;;;35.43;33.20;;;;;;;;;;4995291;28;20447;-72
2021/08/11 04:07:01;;;;;;;34.10;32.00;;;;;;;;;;4995447;28;20497;-72
2021/08/11 04:09:29;;;;;;;34.80;32.63;;;;;;;;;;4995839;28;20457;-73
2021/08/11 04:11:56;;;;;;;33.50;31.60;;;;;;;;;;4993841;28;21118;-72
2021/08/11 04:14:23;;;;;;;33.77;31.77;;;;;;;;;;4995299;28;20486;-72
2021/08/11 04:16:50;;;;;;;34.23;32.23;;;;;;;;;;4988690;28;20470;-72
2021/08/11 04:19:17;;;;;;;33.97;31.77;;;;;;;;;;4994391;28;20941;-72
2021/08/11 04:21:46;;;;;;;33.93;31.83;;;;;;;;;;5001650;28;20554;-72
2021/08/11 04:24:13;;;;;;;33.70;31.70;;;;;;;;;;4994725;28;20487;-72
2021/08/11 04:26:40;;;;;;;33.87;31.87;;;;;;;;;;4994238;28;20972;-72
2021/08/11 04:29:07;;;;;;;32.70;30.70;;;;;;;;;;4994900;28;20495;-72
2021/08/11 04:31:34;;;;;;;32.43;30.23;;;;;;;;;;4993013;28;21162;-73
2021/08/11 04:34:01;;;;;;;32.40;30.43;;;;;;;;;;4993451;28;20486;-72
2021/08/11 04:36:29;;;;;;;33.23;31.00;;;;;;;;;;4994829;28;20450;-72
2021/08/11 04:38:57;;;;;;;31.77;29.87;;;;;;;;;;4996114;28;20478;-72
2021/08/11 04:41:24;;;;;;;33.97;31.93;;;;;;;;;;4994304;28;20458;-73
2021/08/11 04:43:52;;;;;;;33.30;31.00;;;;;;;;;;4994241;28;20447;-72
2021/08/11 04:46:20;;;;;;;32.97;30.87;;;;;;;;;;4989982;28;20931;-73
2021/08/11 04:48:47;;;;;;;31.83;29.90;;;;;;;;;;4991398;28;20478;-74
2021/08/11 04:51:14;;;;;;;31.47;29.47;;;;;;;;;;4993834;28;20455;-72
2021/08/11 04:53:41;;;;;;;31.10;29.27;;;;;;;;;;4993972;28;20476;-72
2021/08/11 04:56:09;;;;;;;31.40;29.50;;;;;;;;;;5010050;28;20453;-73
2021/08/11 04:58:36;;;;;;;31.47;29.53;;;;;;;;;;4991336;28;20481;-72
2021/08/11 05:01:04;;;;;;;31.37;29.37;;;;;;;;;;4993122;28;20458;-72
2021/08/11 05:03:35;;;;;;;30.80;28.80;;;;;;;;;;4992913;28;20460;-72
2021/08/11 05:06:02;;;;;;;32.73;30.70;;;;;;;;;;4992919;28;20454;-72
2021/08/11 05:08:29;;;;;;;31.97;30.07;;;;;;;;;;4989597;28;20972;-72
2021/08/11 05:10:56;;;;;;;31.73;29.83;;;;;;;;;;4991720;28;20454;-72
2021/08/11 05:13:25;;;;;;;32.10;30.10;;;;;;;;;;4994184;28;20453;-71
2021/08/11 05:15:52;;;;;;;33.33;31.27;;;;;;;;;;4994703;28;20882;-71
2021/08/11 05:18:19;;;;;;;32.40;30.30;;;;;;;;;;4994084;28;20492;-71
2021/08/11 05:20:46;;;;;;;32.20;30.00;;;;;;;;;;4992835;28;20958;-71
2021/08/11 05:23:13;;;;;;;31.03;29.03;;;;;;;;;;4993169;28;20477;-73
2021/08/11 05:25:41;;;;;;;32.23;30.10;;;;;;;;;;4992112;28;20522;-72
2021/08/11 05:28:08;;;;;;;33.13;31.03;;;;;;;;;;4993128;28;20859;-73
2021/08/11 05:30:37;;;;;;;47.80;45.30;;;;;;;;;;4994393;28;20453;-73
2021/08/11 05:33:04;;;;;;;38.53;36.03;;;;;;;;;;4993469;28;20450;-72
2021/08/11 05:35:31;;;;;;;35.40;33.20;;;;;;;;;;4993693;28;21039;-72
2021/08/11 05:37:58;;;;;;;36.50;33.93;;;;;;;;;;4993881;28;20480;-72
2021/08/11 05:40:26;;;;;;;35.03;32.73;;;;;;;;;;4993568;28;20446;-72
2021/08/11 05:42:53;;;;;;;36.80;34.50;;;;;;;;;;4988807;28;20466;-73
2021/08/11 05:45:20;;;;;;;36.17;33.50;;;;;;;;;;4993714;28;20814;-73
2021/08/11 05:47:48;;;;;;;37.90;35.40;;;;;;;;;;4993457;28;20482;-72
2021/08/11 05:50:15;;;;;;;36.87;34.57;;;;;;;;;;4992071;28;20824;-71
2021/08/11 05:52:43;;;;;;;35.50;33.20;;;;;;;;;;4993514;28;20457;-74
2021/08/11 05:55:10;;;;;;;36.00;33.80;;;;;;;;;;4992258;28;20485;-70
2021/08/11 05:57:38;;;;;;;37.57;35.27;;;;;;;;;;4990925;28;20497;-71
2021/08/11 06:00:06;;;;;;;36.93;34.40;;;;;;;;;;4993532;28;20960;-71
2021/08/11 06:02:33;;;;;;;35.03;32.73;;;;;;;;;;4992252;28;20446;-70
2021/08/11 06:05:02;;;;;;;34.90;32.60;;;;;;;;;;4993646;28;20453;-70
2021/08/11 06:07:29;;;;;;;32.23;30.07;;;;;;;;;;4993293;28;20471;-71
2021/08/11 06:09:56;;;;;;;32.80;30.70;;;;;;;;;;4992794;28;20443;-71
2021/08/11 06:12:23;;;;;;;33.00;31.00;;;;;;;;;;4984819;28;20469;-71
2021/08/11 06:14:50;;;;;;;33.20;30.93;;;;;;;;;;4992562;28;20493;-71
2021/08/11 06:17:17;;;;;;;34.23;32.00;;;;;;;;;;4992400;28;21015;-70
2021/08/11 06:19:46;;;;;;;32.20;30.20;;;;;;;;;;4992635;28;20451;-71
2021/08/11 06:22:15;;;;;;;31.70;29.80;;;;;;;;;;4992227;28;20454;-71
2021/08/11 06:24:42;;;;;;;33.60;31.63;;;;;;;;;;4993103;28;20996;-71
2021/08/11 06:27:09;;;;;;;32.93;30.90;;;;;;;;;;4992359;28;20470;-71
2021/08/11 06:29:36;;;;;;;31.93;29.90;;;;;;;;;;4993106;28;20443;-70
2021/08/11 06:32:05;;;;;;;32.50;30.50;;;;;;;;;;4993996;28;20472;-71
2021/08/11 06:34:32;;;;;;;32.90;30.80;;;;;;;;;;4999347;28;20486;-71
2021/08/11 06:36:59;;;;;;;32.30;30.30;;;;;;;;;;4992492;28;20942;-70
2021/08/11 06:39:27;;;;;;;33.40;31.30;;;;;;;;;;4992691;28;20447;-71
2021/08/11 06:41:54;;;;;;;31.80;29.73;;;;;;;;;;4988800;28;20480;-71
2021/08/11 06:44:22;;;;;;;31.90;30.00;;;;;;;;;;4983099;28;20461;-71
2021/08/11 06:46:49;;;;;;;31.50;29.40;;;;;;;;;;4993369;28;21124;-71
2021/08/11 06:49:16;;;;;;;32.13;30.13;;;;;;;;;;4992596;28;20458;-74
2021/08/11 06:51:43;;;;;;;31.50;29.60;;;;;;;;;;4993056;28;20469;-74
2021/08/11 06:54:12;;;;;;;32.03;30.03;;;;;;;;;;4993239;28;20979;-73
2021/08/11 06:56:41;;;;;;;32.63;30.73;;;;;;;;;;4992026;28;20493;-72
2021/08/11 06:59:08;;;;;;;31.90;29.93;;;;;;;;;;4992514;28;20474;-70
2021/08/11 07:01:36;;;;;;;32.23;29.80;;;;;;;;;;4992244;28;20485;-70
2021/08/11 07:04:03;;;;;;;32.50;30.37;;;;;;;;;;4992120;28;20454;-69
2021/08/11 07:06:30;;;;;;;32.97;30.80;;;;;;;;;;4992188;28;21019;-69
2021/08/11 07:08:57;;;;;;;31.57;29.63;;;;;;;;;;4985730;28;20868;-71
2021/08/11 07:11:24;;;;;;;32.57;30.43;;;;;;;;;;4992639;28;20457;-71
2021/08/11 07:13:53;;;;;;;32.70;30.60;;;;;;;;;;4992946;28;20450;-71
2021/08/11 07:16:20;;;;;;;31.20;29.10;;;;;;;;;;4985149;28;20495;-71
2021/08/11 07:18:47;;;;;;;31.40;29.30;;;;;;;;;;4988309;28;21033;-71
2021/08/11 07:21:14;;;;;;;33.53;31.20;;;;;;;;;;4991639;28;20439;-71
2021/08/11 07:23:41;;;;;;;32.87;30.70;;;;;;;;;;4992305;28;20451;-74
2021/08/11 07:26:09;;;;;;;34.10;31.70;;;;;;;;;;4993044;28;20934;-74
2021/08/11 07:28:37;;;;;;;40.70;37.20;;;;;;;;;;4992814;28;20481;-74
2021/08/11 07:31:05;;;;;;;37.77;35.47;;;;;;;;;;4995525;28;20468;-73
2021/08/11 07:33:32;;;;;;;39.20;36.80;;;;;;;;;;4995567;28;20450;-73
2021/08/11 07:35:59;;;;;;;39.60;37.10;;;;;;;;;;4995324;28;20493;-73
2021/08/11 07:38:26;;;;;;;39.50;37.00;;;;;;;;;;4995310;28;20472;-73
2021/08/11 07:40:53;;;;;;;42.10;39.30;;;;;;;;;;4995425;28;20473;-70
2021/08/11 07:43:21;;;;;;;42.37;39.60;;;;;;;;;;4995839;28;20455;-71
2021/08/11 07:45:49;;;;;;;39.60;36.90;;;;;;;;;;4996055;28;20545;-69
2021/08/11 07:48:18;;;;;;;42.03;39.10;;;;;;;;;;4995003;28;21017;-71
2021/08/11 07:50:45;;;;;;;37.60;34.73;;;;;;;;;;4995029;28;20457;-70
2021/08/11 07:53:12;;;;;;;37.27;34.27;;;;;;;;;;4995966;28;20817;-71
2021/08/11 07:55:39;;;;;;;37.30;35.00;;;;;;;;;;4995910;28;20573;-71
2021/08/11 07:58:06;;;;;;;36.30;34.00;;;;;;;;;;4995898;28;20496;-70
2021/08/11 08:00:33;;;;;;;35.67;33.40;;;;;;;;;;4995711;28;20482;-69
2021/08/11 08:03:00;;;;;;;33.33;31.13;;;;;;;;;;4995635;28;20841;-69
2021/08/11 08:05:29;;;;;;;28.67;26.87;;;;;;;;;;4996882;28;20470;-69
2021/08/11 08:07:56;;;;;;;30.53;28.50;;;;;;;;;;5001644;28;21000;-69
2021/08/11 08:10:23;;;;;;;31.10;29.07;;;;;;;;;;4993900;28;20946;-67
2021/08/11 08:12:50;;;;;;;32.20;29.83;;;;;;;;;;4996037;28;20454;-70
2021/08/11 08:15:18;;;;;;;30.57;28.50;;;;;;;;;;4996006;28;20998;-69
2021/08/11 08:17:45;;;;;;;31.10;28.53;;;;;;;;;;5021259;22;20488;-63
2021/08/11 08:20:13;;;;;;;31.53;28.73;;;;;;;;;;4981095;28;20474;-63
2021/08/11 08:22:42;;;;;;;29.77;27.57;;;;;;;;;;4998766;28;20505;-63
2021/08/11 08:25:09;;;;;;;27.50;25.70;;;;;;;;;;5001577;28;20481;-63
2021/08/11 08:27:37;;;;;;;31.60;29.70;;;;;;;;;;5000264;28;20529;-64
2021/08/11 08:30:05;;;;;;;31.50;29.60;;;;;;;;;;4994001;28;20993;-63
2021/08/11 08:32:32;;;;;;;26.97;24.90;;;;;;;;;;4993501;28;21125;-64
2021/08/11 08:34:59;;;;;;;26.03;24.23;;;;;;;;;;4993780;28;20465;-64
2021/08/11 08:37:27;;;;;;;26.70;25.20;;;;;;;;;;4993689;28;20462;-63
2021/08/11 08:39:55;;;;;;;26.43;24.73;;;;;;;;;;4994089;28;20482;-63
2021/08/11 08:42:22;;;;;;;27.37;25.47;;;;;;;;;;4992539;28;20977;-63
2021/08/11 08:44:49;;;;;;;24.97;23.40;;;;;;;;;;4991926;28;20481;-63
2021/08/11 08:47:17;;;;;;;25.00;23.40;;;;;;;;;;5007331;28;20830;-63
2021/08/11 08:49:45;;;;;;;23.83;22.33;;;;;;;;;;4993346;28;20478;-63
2021/08/11 08:52:14;;;;;;;25.43;23.93;;;;;;;;;;4991727;28;20463;-64
2021/08/11 08:54:41;;;;;;;25.30;23.70;;;;;;;;;;4987215;28;21045;-63
2021/08/11 08:57:09;;;;;;;24.87;23.37;;;;;;;;;;4986044;28;20585;-63
2021/08/11 08:59:39;;;;;;;24.83;23.33;;;;;;;;;;4993318;28;20483;-62
2021/08/11 09:02:09;;;;;;;25.70;24.00;;;;;;;;;;4984809;28;20553;-63
2021/08/11 09:04:36;;;;;;;24.50;23.10;;;;;;;;;;4993342;28;20459;-62
2021/08/11 09:07:05;;;;;;;24.80;23.40;;;;;;;;;;4992629;28;20840;-63
2021/08/11 09:09:34;;;;;;;24.73;23.23;;;;;;;;;;4993332;28;20474;-63
2021/08/11 09:12:10;;;;;;;24.67;23.17;;;;;;;;;;4993077;28;20446;-63
2021/08/11 09:14:38;;;;;;;24.00;22.60;;;;;;;;;;4993403;28;20431;-63
2021/08/11 09:17:05;;;;;;;24.90;23.10;;;;;;;;;;4993029;28;20490;-67
2021/08/11 09:19:38;;;;;;;25.77;23.90;;;;;;;;;;4992653;28;21079;-67
2021/08/11 09:22:06;;;;;;;25.43;23.70;;;;;;;;;;4992362;28;20793;-67
2021/08/11 09:24:35;;;;;;;24.00;22.67;;;;;;;;;;4993119;28;20458;-67
2021/08/11 09:27:19;;;;;;;23.80;22.40;;;;;;;;;;4992496;28;20505;-67
2021/08/11 09:30:02;;;;;;;23.80;22.17;;;;;;;;;;4992435;28;20482;-67
2021/08/11 09:32:29;;;;;;;22.60;21.30;;;;;;;;;;4992393;28;20533;-66
2021/08/11 09:34:57;;;;;;;24.40;23.00;;;;;;;;;;4992473;28;20451;-66
2021/08/11 09:37:38;;;;;;;21.93;20.73;;;;;;;;;;4992371;28;20536;-66
2021/08/11 09:40:12;;;;;;;22.37;21.00;;;;;;;;;;4992313;28;21017;-66
2021/08/11 09:42:41;;;;;;;23.60;22.30;;;;;;;;;;4992512;28;21004;-65
2021/08/11 09:45:09;;;;;;;21.77;20.47;;;;;;;;;;4993705;28;20513;-64
2021/08/11 09:47:37;;;;;;;22.60;21.33;;;;;;;;;;4992451;28;20458;-64
2021/08/11 09:50:05;;;;;;;22.63;21.33;;;;;;;;;;4992548;28;20474;-64
2021/08/11 09:52:46;;;;;;;23.83;22.43;;;;;;;;;;4991625;28;20833;-64
2021/08/11 09:55:14;;;;;;;22.83;21.43;;;;;;;;;;4973537;28;20458;-64
2021/08/11 09:57:42;;;;;;;24.60;23.20;;;;;;;;;;4985063;28;20450;-65
2021/08/11 10:00:13;;;;;;;24.03;22.23;;;;;;;;;;4992157;28;20461;-64
2021/08/11 10:02:40;;;;;;;24.87;23.47;;;;;;;;;;4995211;28;20459;-65
2021/08/11 10:05:09;;;;;;;24.33;22.90;;;;;;;;;;4994750;28;20455;-65
2021/08/11 10:07:36;;;;;;;24.30;22.67;;;;;;;;;;4991912;28;20958;-65
2021/08/11 10:10:04;;;;;;;24.50;23.10;;;;;;;;;;4992567;28;20475;-64
2021/08/11 10:12:33;;;;;;;23.47;22.17;;;;;;;;;;4991987;28;20537;-64
2021/08/11 10:15:03;;;;;;;25.00;23.60;;;;;;;;;;4992642;28;20886;-64
2021/08/11 10:17:34;;;;;;;24.37;23.07;;;;;;;;;;4989066;28;20505;-64
2021/08/11 10:20:02;;;;;;;22.97;21.73;;;;;;;;;;4992553;28;20492;-64
2021/08/11 10:22:29;;;;;;;24.43;23.10;;;;;;;;;;4992520;28;20451;-64
2021/08/11 10:24:57;;;;;;;23.90;22.40;;;;;;;;;;4991780;28;20815;-64
2021/08/11 10:27:24;;;;;;;24.10;22.80;;;;;;;;;;4991563;28;20453;-64
2021/08/11 10:29:52;;;;;;;23.70;22.33;;;;;;;;;;4991781;28;21032;-64
2021/08/11 10:32:22;;;;;;;24.40;23.10;;;;;;;;;;4991608;28;20569;-64
2021/08/11 10:34:49;;;;;;;24.37;23.07;;;;;;;;;;4992520;28;20454;-64
2021/08/11 10:37:16;;;;;;;24.57;23.17;;;;;;;;;;4980232;28;20486;-64
2021/08/11 10:39:43;;;;;;;24.10;22.80;;;;;;;;;;4990802;28;20476;-66
2021/08/11 10:42:11;;;;;;;24.00;22.70;;;;;;;;;;4989661;28;20459;-65
2021/08/11 10:44:39;;;;;;;24.90;23.50;;;;;;;;;;4992526;28;20447;-65
2021/08/11 10:47:07;;;;;;;24.90;23.50;;;;;;;;;;4991563;28;20490;-65
2021/08/11 10:49:52;;;;;;;25.50;24.10;;;;;;;;;;4991913;28;20546;-65
2021/08/11 10:52:19;;;;;;;24.10;22.70;;;;;;;;;;4991800;28;20541;-66
2021/08/11 10:54:50;;;;;;;23.80;22.50;;;;;;;;;;4999666;28;20461;-65
2021/08/11 10:57:32;;;;;;;25.57;24.17;;;;;;;;;;5011174;28;21017;-65
2021/08/11 10:59:59;;;;;;;24.03;22.67;;;;;;;;;;4994066;28;20480;-65
2021/08/11 11:02:47;;;;;;;24.23;22.93;;;;;;;;;;4991884;28;20822;-64
2021/08/11 11:05:38;;;;;;;24.20;22.80;;;;;;;;;;4994710;28;20477;-64
2021/08/11 11:08:24;;;;;;;28.73;27.13;;;;;;;;;;4984854;28;20483;-65
2021/08/11 11:10:52;;;;;;;28.10;26.60;;;;;;;;;;4995179;28;20465;-64
2021/08/11 11:13:38;;;;;;;29.17;27.63;;;;;;;;;;4994952;28;20465;-64
2021/08/11 11:16:08;;;;;;;29.43;27.70;;;;;;;;;;4995296;28;20489;-64
2021/08/11 11:18:35;;;;;;;28.00;26.40;;;;;;;;;;4995020;28;21001;-64
2021/08/11 11:21:20;;;;;;;28.53;26.83;;;;;;;;;;4994903;28;20459;-64
2021/08/11 11:23:48;;;;;;;27.73;26.23;;;;;;;;;;4989887;28;20456;-66
2021/08/11 11:26:18;;;;;;;26.30;24.80;;;;;;;;;;4994867;28;20453;-65
2021/08/11 11:28:55;;;;;;;27.60;26.07;;;;;;;;;;4994528;28;20490;-65
2021/08/11 11:31:36;;;;;;;26.83;25.23;;;;;;;;;;4993803;28;20489;-65
2021/08/11 11:34:33;;;;;;;28.00;26.47;;;;;;;;;;4994920;28;20450;-65
2021/08/11 11:37:19;;;;;;;27.57;25.97;;;;;;;;;;4953059;28;20484;-65
2021/08/11 11:40:05;;;;;;;26.30;24.90;;;;;;;;;;4990411;28;20484;-65
2021/08/11 11:42:33;;;;;;;27.60;26.00;;;;;;;;;;4994942;28;20446;-65
2021/08/11 11:45:01;;;;;;;26.37;24.97;;;;;;;;;;4999829;28;20460;-65
2021/08/11 11:47:47;;;;;;;26.00;24.60;;;;;;;;;;4990315;28;20466;-65
2021/08/11 11:50:28;;;;;;;26.67;25.27;;;;;;;;;;4993275;28;20473;-65
2021/08/11 11:52:56;;;;;;;28.00;26.50;;;;;;;;;;4991356;28;20474;-64
2021/08/11 11:55:27;;;;;;;28.60;27.10;;;;;;;;;;4994976;28;20547;-64
2021/08/11 11:57:55;;;;;;;27.93;26.43;;;;;;;;;;4980654;28;20493;-64
2021/08/11 12:00:23;;;;;;;26.53;25.03;;;;;;;;;;4981833;28;20466;-65
2021/08/11 12:02:51;;;;;;;26.40;24.90;;;;;;;;;;4987070;28;20462;-65
2021/08/11 12:05:18;;;;;;;27.50;26.00;;;;;;;;;;4982464;28;20835;-65
2021/08/11 12:07:46;;;;;;;27.40;26.00;;;;;;;;;;4994217;28;20533;-65
2021/08/11 12:10:22;;;;;;;25.63;24.33;;;;;;;;;;4992911;28;20467;-65
2021/08/11 12:12:59;;;;;;;26.50;25.03;;;;;;;;;;4994031;28;20457;-65
2021/08/11 12:15:26;;;;;;;26.40;25.00;;;;;;;;;;4993474;28;21276;-65
2021/08/11 12:17:56;;;;;;;27.10;25.70;;;;;;;;;;4993572;28;20993;-65
2021/08/11 12:20:26;;;;;;;26.30;24.90;;;;;;;;;;4993785;28;20499;-65
2021/08/11 12:22:54;;;;;;;27.00;25.60;;;;;;;;;;4992947;28;20829;-65
2021/08/11 12:25:21;;;;;;;27.40;25.90;;;;;;;;;;4991419;28;20465;-65
2021/08/11 12:28:03;;;;;;;27.07;25.50;;;;;;;;;;4991145;28;20544;-65
2021/08/11 12:30:32;;;;;;;26.20;24.70;;;;;;;;;;4992352;28;20794;-65
2021/08/11 12:32:59;;;;;;;25.67;24.27;;;;;;;;;;4990880;28;20544;-65
2021/08/11 12:35:27;;;;;;;26.10;24.70;;;;;;;;;;4993139;28;20470;-64
2021/08/11 12:37:54;;;;;;;26.90;25.40;;;;;;;;;;4993290;28;20486;-65
2021/08/11 12:40:31;;;;;;;26.70;25.20;;;;;;;;;;4993134;28;20472;-65
2021/08/11 12:42:59;;;;;;;26.97;25.50;;;;;;;;;;4993420;28;20454;-65
2021/08/11 12:45:26;;;;;;;26.20;24.70;;;;;;;;;;4991267;28;20836;-65
2021/08/11 12:47:55;;;;;;;23.97;22.57;;;;;;;;;;4992872;28;20471;-65
2021/08/11 12:50:23;;;;;;;21.93;20.73;;;;;;;;;;4993412;28;20454;-65
2021/08/11 12:52:56;;;;;;;22.00;20.80;;;;;;;;;;4990412;28;20466;-65
2021/08/11 12:55:33;;;;;;;23.00;21.80;;;;;;;;;;4992468;28;20477;-65
2021/08/11 12:58:00;;;;;;;25.27;24.00;;;;;;;;;;4980612;28;20486;-65
2021/08/11 13:00:46;;;;;;;26.97;25.67;;;;;;;;;;4992552;28;20561;-65
2021/08/11 13:03:14;;;;;;;25.77;24.37;;;;;;;;;;4992060;28;20466;-65
2021/08/11 13:05:52;;;;;;;25.80;24.50;;;;;;;;;;4993379;28;20453;-65
2021/08/11 13:08:19;;;;;;;25.10;23.90;;;;;;;;;;4989237;28;20493;-64
2021/08/11 13:10:56;;;;;;;25.63;24.20;;;;;;;;;;4993148;28;20453;-64
2021/08/11 13:13:23;;;;;;;25.37;24.00;;;;;;;;;;4991237;28;20548;-64
2021/08/11 13:16:06;;;;;;;21.80;20.70;;;;;;;;;;4993074;28;20450;-64
2021/08/11 13:18:35;;;;;;;25.03;23.73;;;;;;;;;;4992055;28;20500;-64
2021/08/11 13:21:02;;;;;;;21.80;20.70;;;;;;;;;;4989669;28;20472;-64
2021/08/11 13:23:29;;;;;;;21.80;20.70;;;;;;;;;;5002319;28;20451;-65
2021/08/11 13:25:58;;;;;;;21.73;20.63;;;;;;;;;;4989772;28;20455;-65
2021/08/11 13:28:25;;;;;;;21.63;20.43;;;;;;;;;;4988594;28;20486;-65
2021/08/11 13:30:53;;;;;;;21.40;20.30;;;;;;;;;;4986134;28;20901;-65
2021/08/11 13:33:20;;;;;;;22.63;21.53;;;;;;;;;;4992719;28;20513;-64
2021/08/11 13:35:49;;;;;;;22.00;20.90;;;;;;;;;;4993476;28;20923;-64
2021/08/11 13:38:16;;;;;;;22.47;21.37;;;;;;;;;;4991723;28;20500;-64
2021/08/11 13:40:43;;;;;;;21.70;20.30;;;;;;;;;;4990560;28;20818;-64
2021/08/11 13:43:10;;;;;;;21.27;19.97;;;;;;;;;;4996189;28;20461;-64
2021/08/11 13:45:39;;;;;;;21.50;20.40;;;;;;;;;;4994067;28;20470;-64
2021/08/11 13:48:07;;;;;;;21.33;20.23;;;;;;;;;;4991263;28;20560;-64
2021/08/11 13:50:34;;;;;;;21.20;20.10;;;;;;;;;;4978659;28;20614;-65
2021/08/11 13:53:02;;;;;;;21.63;20.50;;;;;;;;;;4992628;28;20446;-64
2021/08/11 13:55:29;;;;;;;21.57;20.37;;;;;;;;;;4992641;28;20450;-64
2021/08/11 13:57:56;;;;;;;21.00;19.90;;;;;;;;;;5001632;28;20478;-64
2021/08/11 14:00:25;;;;;;;21.47;20.37;;;;;;;;;;4999228;28;20450;-64
2021/08/11 14:02:52;;;;;;;21.20;20.07;;;;;;;;;;4995559;28;20494;-65
2021/08/11 14:05:20;;;;;;;21.50;20.40;;;;;;;;;;4992772;28;20537;-64
2021/08/11 14:07:47;;;;;;;21.30;20.30;;;;;;;;;;4991355;28;20451;-64
2021/08/11 14:10:15;;;;;;;21.60;20.40;;;;;;;;;;4991287;28;20972;-64
2021/08/11 14:12:43;;;;;;;21.00;19.90;;;;;;;;;;4991919;28;20965;-64
2021/08/11 14:15:10;;;;;;;20.83;19.73;;;;;;;;;;4991780;28;20509;-65
2021/08/11 14:17:37;;;;;;;21.10;19.97;;;;;;;;;;4991185;28;20491;-66
2021/08/11 14:20:05;;;;;;;21.50;20.23;;;;;;;;;;5020026;22;20492;-70
2021/08/11 14:22:32;;;;;;;21.53;20.33;;;;;;;;;;5014594;28;20446;-67
2021/08/11 14:24:59;;;;;;;20.70;19.70;;;;;;;;;;5020782;28;20449;-68
2021/08/11 14:27:28;;;;;;;21.33;20.33;;;;;;;;;;5012364;28;20801;-67